sensor_id;sensor_type;location;lat;lon;timestamp;temperature;humidity
18189;DHT22;9219;50.396;8.546;2023-11-19T00:00:34;9.50;99.90
18189;DHT22;9219;50.396;8.546;2023-11-19T00:03:02;9.40;99.90
18189;DHT22;9219;50.396;8.546;2023-11-19T00:05:29;9.50;99.90
18189;DHT22;9219;50.396;8.546;2023-11-19T00:07:57;9.60;99.90
18189;DHT22;9219;50.396;8.546;2023-11-19T00:10:24;9.60;99.90
18189;DHT22;9219;50.396;8.546;2023-11-19T00:12:52;9.50;99.90
18189;DHT22;9219;50.396;8.546;2023-11-19T00:15:20;9.30;99.90
18189;DHT22;9219;50.396;8.546;2023-11-19T00:22:51;9.50;99.90
18189;DHT22;9219;50.396;8.546;2023-11-19T00:25:20;9.60;99.90
18189;DHT22;9219;50.396;8.546;2023-11-19T00:27:48;9.60;99.90
18189;DHT22;9219;50.396;8.546;2023-11-19T00:30:17;9.70;99.90
18189;DHT22;9219;50.396;8.546;2023-11-19T00:32:44;9.80;99.90
18189;DHT22;9219;50.396;8.546;2023-11-19T00:35:12;9.90;99.90
18189;DHT22;9219;50.396;8.546;2023-11-19T00:37:43;9.90;99.90
18189;DHT22;9219;50.396;8.546;2023-11-19T00:43:13;9.80;99.90
18189;DHT22;9219;50.396;8.546;2023-11-19T00:45:40;9.80;99.90
18189;DHT22;9219;50.396;8.546;2023-11-19T00:48:07;9.90;99.90
18189;DHT22;9219;50.396;8.546;2023-11-19T00:50:37;9.90;99.90
18189;DHT22;9219;50.396;8.546;2023-11-19T00:53:09;10.00;99.90
18189;DHT22;9219;50.396;8.546;2023-11-19T00:55:37;10.20;99.90
18189;DHT22;9219;50.396;8.546;2023-11-19T00:58:13;10.10;99.90
18189;DHT22;9219;50.396;8.546;2023-11-19T01:08:06;9.70;99.90
18189;DHT22;9219;50.396;8.546;2023-11-19T01:10:34;9.90;99.90
18189;DHT22;9219;50.396;8.546;2023-11-19T01:13:04;9.80;99.90
18189;DHT22;9219;50.396;8.546;2023-11-19T01:15:32;9.90;99.90
18189;DHT22;9219;50.396;8.546;2023-11-19T01:17:59;9.80;99.90
18189;DHT22;9219;50.396;8.546;2023-11-19T01:20:28;9.80;99.90
18189;DHT22;9219;50.396;8.546;2023-11-19T01:22:55;9.90;99.90
18189;DHT22;9219;50.396;8.546;2023-11-19T01:28:03;10.00;99.90
18189;DHT22;9219;50.396;8.546;2023-11-19T01:30:31;10.20;99.90
18189;DHT22;9219;50.396;8.546;2023-11-19T01:32:58;10.30;99.90
18189;DHT22;9219;50.396;8.546;2023-11-19T01:35:25;10.40;99.90
18189;DHT22;9219;50.396;8.546;2023-11-19T01:37:54;10.30;99.90
18189;DHT22;9219;50.396;8.546;2023-11-19T01:40:21;10.40;99.90
18189;DHT22;9219;50.396;8.546;2023-11-19T01:42:48;10.10;99.90
18189;DHT22;9219;50.396;8.546;2023-11-19T01:45:25;10.30;99.90
18189;DHT22;9219;50.396;8.546;2023-11-19T01:52:59;10.50;99.90
18189;DHT22;9219;50.396;8.546;2023-11-19T01:55:27;10.80;99.90
18189;DHT22;9219;50.396;8.546;2023-11-19T01:57:57;10.80;99.90
18189;DHT22;9219;50.396;8.546;2023-11-19T02:00:26;10.70;99.90
18189;DHT22;9219;50.396;8.546;2023-11-19T02:02:53;10.70;99.90
18189;DHT22;9219;50.396;8.546;2023-11-19T02:05:28;10.70;99.90
18189;DHT22;9219;50.396;8.546;2023-11-19T02:08:10;10.70;99.90
18189;DHT22;9219;50.396;8.546;2023-11-19T02:15:46;10.70;99.90
18189;DHT22;9219;50.396;8.546;2023-11-19T02:18:20;10.70;99.90
18189;DHT22;9219;50.396;8.546;2023-11-19T02:20:48;10.60;99.90
18189;DHT22;9219;50.396;8.546;2023-11-19T02:23:17;10.50;99.90
18189;DHT22;9219;50.396;8.546;2023-11-19T02:25:52;10.50;99.90
18189;DHT22;9219;50.396;8.546;2023-11-19T02:28:22;10.50;99.90
18189;DHT22;9219;50.396;8.546;2023-11-19T02:30:50;10.70;99.90
18189;DHT22;9219;50.396;8.546;2023-11-19T02:36:14;10.70;99.90
18189;DHT22;9219;50.396;8.546;2023-11-19T02:38:41;10.40;99.90
18189;DHT22;9219;50.396;8.546;2023-11-19T02:41:09;10.30;99.90
18189;DHT22;9219;50.396;8.546;2023-11-19T02:43:37;10.50;99.90
18189;DHT22;9219;50.396;8.546;2023-11-19T02:46:05;10.50;99.90
18189;DHT22;9219;50.396;8.546;2023-11-19T02:48:37;10.60;99.90
18189;DHT22;9219;50.396;8.546;2023-11-19T02:51:05;10.50;99.90
18189;DHT22;9219;50.396;8.546;2023-11-19T02:57:10;10.40;99.90
18189;DHT22;9219;50.396;8.546;2023-11-19T02:59:48;10.50;99.90
18189;DHT22;9219;50.396;8.546;2023-11-19T03:02:15;10.40;99.90
18189;DHT22;9219;50.396;8.546;2023-11-19T03:04:44;10.30;99.90
18189;DHT22;9219;50.396;8.546;2023-11-19T03:07:12;10.20;99.90
18189;DHT22;9219;50.396;8.546;2023-11-19T03:09:40;10.50;99.90
18189;DHT22;9219;50.396;8.546;2023-11-19T03:12:08;10.70;99.90
18189;DHT22;9219;50.396;8.546;2023-11-19T03:17:14;10.80;99.90
18189;DHT22;9219;50.396;8.546;2023-11-19T03:19:41;10.90;99.90
18189;DHT22;9219;50.396;8.546;2023-11-19T03:22:08;11.00;99.90
18189;DHT22;9219;50.396;8.546;2023-11-19T03:24:37;10.80;99.90
18189;DHT22;9219;50.396;8.546;2023-11-19T03:27:04;10.70;99.90
18189;DHT22;9219;50.396;8.546;2023-11-19T03:29:31;10.70;99.90
18189;DHT22;9219;50.396;8.546;2023-11-19T03:31:58;10.80;99.90
18189;DHT22;9219;50.396;8.546;2023-11-19T03:34:26;10.90;99.90
18189;DHT22;9219;50.396;8.546;2023-11-19T03:41:58;11.00;99.90
18189;DHT22;9219;50.396;8.546;2023-11-19T03:44:27;11.00;99.90
18189;DHT22;9219;50.396;8.546;2023-11-19T03:46:54;11.10;99.90
18189;DHT22;9219;50.396;8.546;2023-11-19T03:49:22;11.20;99.90
18189;DHT22;9219;50.396;8.546;2023-11-19T03:51:50;11.20;99.90
18189;DHT22;9219;50.396;8.546;2023-11-19T03:54:17;11.20;99.90
18189;DHT22;9219;50.396;8.546;2023-11-19T03:56:44;10.90;99.90
18189;DHT22;9219;50.396;8.546;2023-11-19T04:04:12;11.00;99.90
18189;DHT22;9219;50.396;8.546;2023-11-19T04:06:40;11.30;99.90
18189;DHT22;9219;50.396;8.546;2023-11-19T04:09:07;11.50;99.90
18189;DHT22;9219;50.396;8.546;2023-11-19T04:11:36;11.50;99.90
18189;DHT22;9219;50.396;8.546;2023-11-19T04:14:03;11.60;99.90
18189;DHT22;9219;50.396;8.546;2023-11-19T04:16:30;11.40;99.90
18189;DHT22;9219;50.396;8.546;2023-11-19T04:18:57;11.20;99.90
18189;DHT22;9219;50.396;8.546;2023-11-19T04:21:25;11.10;99.90
18189;DHT22;9219;50.396;8.546;2023-11-19T04:31:18;11.50;99.90
18189;DHT22;9219;50.396;8.546;2023-11-19T04:33:45;11.60;99.90
18189;DHT22;9219;50.396;8.546;2023-11-19T04:36:12;11.50;99.90
18189;DHT22;9219;50.396;8.546;2023-11-19T04:38:40;11.60;99.90
18189;DHT22;9219;50.396;8.546;2023-11-19T04:41:08;11.60;99.90
18189;DHT22;9219;50.396;8.546;2023-11-19T04:43:35;11.70;99.90
18189;DHT22;9219;50.396;8.546;2023-11-19T04:46:03;11.90;99.90
18189;DHT22;9219;50.396;8.546;2023-11-19T04:48:38;11.80;99.90
18189;DHT22;9219;50.396;8.546;2023-11-19T04:56:18;11.80;99.90
18189;DHT22;9219;50.396;8.546;2023-11-19T04:58:48;11.70;99.90
18189;DHT22;9219;50.396;8.546;2023-11-19T05:01:15;11.70;99.90
18189;DHT22;9219;50.396;8.546;2023-11-19T05:03:43;11.70;99.90
18189;DHT22;9219;50.396;8.546;2023-11-19T05:06:12;11.80;99.90
18189;DHT22;9219;50.396;8.546;2023-11-19T05:08:39;12.00;99.90
18189;DHT22;9219;50.396;8.546;2023-11-19T05:11:06;12.10;99.90
18189;DHT22;9219;50.396;8.546;2023-11-19T05:16:16;12.00;99.90
18189;DHT22;9219;50.396;8.546;2023-11-19T05:18:44;11.80;99.90
18189;DHT22;9219;50.396;8.546;2023-11-19T05:21:11;11.90;99.90
18189;DHT22;9219;50.396;8.546;2023-11-19T05:23:39;11.90;99.90
18189;DHT22;9219;50.396;8.546;2023-11-19T05:26:07;11.60;99.90
18189;DHT22;9219;50.396;8.546;2023-11-19T05:28:35;11.50;99.90
18189;DHT22;9219;50.396;8.546;2023-11-19T05:31:02;11.50;99.90
18189;DHT22;9219;50.396;8.546;2023-11-19T05:33:31;11.50;99.90
18189;DHT22;9219;50.396;8.546;2023-11-19T05:39:06;11.80;99.90
18189;DHT22;9219;50.396;8.546;2023-11-19T05:41:33;11.50;99.90
18189;DHT22;9219;50.396;8.546;2023-11-19T05:44:00;11.70;99.90
18189;DHT22;9219;50.396;8.546;2023-11-19T05:46:27;11.60;99.90
18189;DHT22;9219;50.396;8.546;2023-11-19T05:48:54;11.60;99.90
18189;DHT22;9219;50.396;8.546;2023-11-19T05:51:21;11.80;99.90
18189;DHT22;9219;50.396;8.546;2023-11-19T05:53:50;11.80;99.90
18189;DHT22;9219;50.396;8.546;2023-11-19T06:01:21;11.40;99.90
18189;DHT22;9219;50.396;8.546;2023-11-19T06:03:48;11.30;99.90
18189;DHT22;9219;50.396;8.546;2023-11-19T06:06:16;11.50;99.90
18189;DHT22;9219;50.396;8.546;2023-11-19T06:08:44;11.50;99.90
18189;DHT22;9219;50.396;8.546;2023-11-19T06:11:11;11.40;99.90
18189;DHT22;9219;50.396;8.546;2023-11-19T06:13:41;11.10;99.90
18189;DHT22;9219;50.396;8.546;2023-11-19T06:16:09;11.00;99.90
18189;DHT22;9219;50.396;8.546;2023-11-19T06:18:38;11.00;99.90
18189;DHT22;9219;50.396;8.546;2023-11-19T06:21:33;11.10;99.90
18189;DHT22;9219;50.396;8.546;2023-11-19T06:24:02;11.20;99.90
18189;DHT22;9219;50.396;8.546;2023-11-19T06:26:29;11.10;99.90
18189;DHT22;9219;50.396;8.546;2023-11-19T06:28:56;11.00;99.90
18189;DHT22;9219;50.396;8.546;2023-11-19T06:31:26;10.90;99.90
18189;DHT22;9219;50.396;8.546;2023-11-19T06:33:54;10.90;99.90
18189;DHT22;9219;50.396;8.546;2023-11-19T06:36:21;11.20;99.90
18189;DHT22;9219;50.396;8.546;2023-11-19T06:41:30;11.10;99.90
18189;DHT22;9219;50.396;8.546;2023-11-19T06:43:58;11.30;99.90
18189;DHT22;9219;50.396;8.546;2023-11-19T06:46:26;11.40;99.90
18189;DHT22;9219;50.396;8.546;2023-11-19T06:48:53;11.20;99.90
18189;DHT22;9219;50.396;8.546;2023-11-19T06:51:20;11.10;99.90
18189;DHT22;9219;50.396;8.546;2023-11-19T06:53:48;10.90;99.90
18189;DHT22;9219;50.396;8.546;2023-11-19T06:56:19;11.20;99.90
18189;DHT22;9219;50.396;8.546;2023-11-19T07:01:26;11.20;99.90
18189;DHT22;9219;50.396;8.546;2023-11-19T07:03:54;11.20;99.90
18189;DHT22;9219;50.396;8.546;2023-11-19T07:06:25;11.20;99.90
18189;DHT22;9219;50.396;8.546;2023-11-19T07:08:56;11.10;99.90
18189;DHT22;9219;50.396;8.546;2023-11-19T07:11:24;11.30;99.90
18189;DHT22;9219;50.396;8.546;2023-11-19T07:13:51;11.50;99.90
18189;DHT22;9219;50.396;8.546;2023-11-19T07:16:19;11.60;99.90
18189;DHT22;9219;50.396;8.546;2023-11-19T07:21:30;11.70;99.90
18189;DHT22;9219;50.396;8.546;2023-11-19T07:23:57;11.30;99.90
18189;DHT22;9219;50.396;8.546;2023-11-19T07:26:24;11.50;99.90
18189;DHT22;9219;50.396;8.546;2023-11-19T07:28:52;11.30;99.90
18189;DHT22;9219;50.396;8.546;2023-11-19T07:31:19;11.20;99.90
18189;DHT22;9219;50.396;8.546;2023-11-19T07:33:46;11.20;99.90
18189;DHT22;9219;50.396;8.546;2023-11-19T07:36:14;11.10;99.90
18189;DHT22;9219;50.396;8.546;2023-11-19T07:38:42;11.00;99.90
18189;DHT22;9219;50.396;8.546;2023-11-19T07:46:14;11.00;99.90
18189;DHT22;9219;50.396;8.546;2023-11-19T07:48:41;11.20;99.90
18189;DHT22;9219;50.396;8.546;2023-11-19T07:51:11;11.40;99.90
18189;DHT22;9219;50.396;8.546;2023-11-19T07:53:38;11.30;99.90
18189;DHT22;9219;50.396;8.546;2023-11-19T07:56:06;11.30;99.90
18189;DHT22;9219;50.396;8.546;2023-11-19T07:58:34;11.30;99.90
18189;DHT22;9219;50.396;8.546;2023-11-19T08:01:02;11.40;99.90
18189;DHT22;9219;50.396;8.546;2023-11-19T08:06:34;11.20;99.90
18189;DHT22;9219;50.396;8.546;2023-11-19T08:09:02;11.30;99.90
18189;DHT22;9219;50.396;8.546;2023-11-19T08:11:31;11.20;99.90
18189;DHT22;9219;50.396;8.546;2023-11-19T08:13:58;11.00;99.90
18189;DHT22;9219;50.396;8.546;2023-11-19T08:16:26;10.70;99.90
18189;DHT22;9219;50.396;8.546;2023-11-19T08:18:53;10.80;99.90
18189;DHT22;9219;50.396;8.546;2023-11-19T08:21:20;11.00;99.90
18189;DHT22;9219;50.396;8.546;2023-11-19T08:23:49;10.90;99.90
18189;DHT22;9219;50.396;8.546;2023-11-19T08:31:17;10.90;99.90
18189;DHT22;9219;50.396;8.546;2023-11-19T08:33:44;10.90;99.90
18189;DHT22;9219;50.396;8.546;2023-11-19T08:36:16;11.00;99.90
18189;DHT22;9219;50.396;8.546;2023-11-19T08:38:45;10.90;99.90
18189;DHT22;9219;50.396;8.546;2023-11-19T08:41:12;10.90;99.90
18189;DHT22;9219;50.396;8.546;2023-11-19T08:43:40;10.90;99.90
18189;DHT22;9219;50.396;8.546;2023-11-19T08:46:11;10.90;99.90
18189;DHT22;9219;50.396;8.546;2023-11-19T08:48:40;11.00;99.90
18189;DHT22;9219;50.396;8.546;2023-11-19T08:56:11;11.00;99.90
18189;DHT22;9219;50.396;8.546;2023-11-19T08:58:40;11.50;99.90
18189;DHT22;9219;50.396;8.546;2023-11-19T09:01:07;11.50;99.90
18189;DHT22;9219;50.396;8.546;2023-11-19T09:03:36;11.30;99.90
18189;DHT22;9219;50.396;8.546;2023-11-19T09:06:04;11.10;99.90
18189;DHT22;9219;50.396;8.546;2023-11-19T09:08:31;11.00;99.90
18189;DHT22;9219;50.396;8.546;2023-11-19T09:10:58;11.10;99.90
18189;DHT22;9219;50.396;8.546;2023-11-19T09:16:11;11.10;99.90
18189;DHT22;9219;50.396;8.546;2023-11-19T09:18:39;11.50;99.90
18189;DHT22;9219;50.396;8.546;2023-11-19T09:21:06;11.70;99.90
18189;DHT22;9219;50.396;8.546;2023-11-19T09:23:33;11.80;99.90
18189;DHT22;9219;50.396;8.546;2023-11-19T09:26:05;11.80;99.90
18189;DHT22;9219;50.396;8.546;2023-11-19T09:28:33;11.70;99.90
18189;DHT22;9219;50.396;8.546;2023-11-19T09:31:00;11.50;99.90
18189;DHT22;9219;50.396;8.546;2023-11-19T09:36:07;11.30;99.90
18189;DHT22;9219;50.396;8.546;2023-11-19T09:38:35;11.30;99.90
18189;DHT22;9219;50.396;8.546;2023-11-19T09:41:05;11.30;99.90
18189;DHT22;9219;50.396;8.546;2023-11-19T09:43:35;11.30;99.90
18189;DHT22;9219;50.396;8.546;2023-11-19T09:46:05;11.30;99.90
18189;DHT22;9219;50.396;8.546;2023-11-19T10:10:08;11.40;99.90
18189;DHT22;9219;50.396;8.546;2023-11-19T10:13:05;11.40;99.90
18189;DHT22;9219;50.396;8.546;2023-11-19T10:15:56;11.30;99.90
18189;DHT22;9219;50.396;8.546;2023-11-19T10:22:18;11.30;99.90
18189;DHT22;9219;50.396;8.546;2023-11-19T10:24:46;11.40;99.90
18189;DHT22;9219;50.396;8.546;2023-11-19T10:27:55;11.50;99.90
18189;DHT22;9219;50.396;8.546;2023-11-19T10:30:44;11.60;99.90
18189;DHT22;9219;50.396;8.546;2023-11-19T10:33:30;11.50;99.90
18189;DHT22;9219;50.396;8.546;2023-11-19T10:36:18;11.40;99.90
18189;DHT22;9219;50.396;8.546;2023-11-19T10:38:59;11.50;99.90
18189;DHT22;9219;50.396;8.546;2023-11-19T10:41:27;11.60;99.90
18189;DHT22;9219;50.396;8.546;2023-11-19T10:44:12;11.50;99.90
18189;DHT22;9219;50.396;8.546;2023-11-19T10:47:27;11.50;99.90
18189;DHT22;9219;50.396;8.546;2023-11-19T10:50:16;11.90;99.90
18189;DHT22;9219;50.396;8.546;2023-11-19T10:58:33;12.30;99.90
18189;DHT22;9219;50.396;8.546;2023-11-19T11:01:09;12.00;99.90
18189;DHT22;9219;50.396;8.546;2023-11-19T11:03:39;11.90;99.90
18189;DHT22;9219;50.396;8.546;2023-11-19T11:06:08;11.80;99.90
18189;DHT22;9219;50.396;8.546;2023-11-19T11:08:37;11.70;99.90
18189;DHT22;9219;50.396;8.546;2023-11-19T11:11:05;11.80;99.90
18189;DHT22;9219;50.396;8.546;2023-11-19T11:13:35;11.90;99.90
18189;DHT22;9219;50.396;8.546;2023-11-19T11:18:49;12.00;99.90
18189;DHT22;9219;50.396;8.546;2023-11-19T11:21:20;12.00;99.90
18189;DHT22;9219;50.396;8.546;2023-11-19T11:24:37;12.00;99.90
18189;DHT22;9219;50.396;8.546;2023-11-19T11:27:53;12.10;99.90
18189;DHT22;9219;50.396;8.546;2023-11-19T11:30:32;12.10;99.90
18189;DHT22;9219;50.396;8.546;2023-11-19T11:33:12;11.90;99.90
18189;DHT22;9219;50.396;8.546;2023-11-19T11:41:15;11.90;99.90
18189;DHT22;9219;50.396;8.546;2023-11-19T11:43:46;11.90;99.90
18189;DHT22;9219;50.396;8.546;2023-11-19T11:49:25;12.20;99.90
18189;DHT22;9219;50.396;8.546;2023-11-19T11:52:03;12.40;99.90
18189;DHT22;9219;50.396;8.546;2023-11-19T11:54:31;12.50;99.90
18189;DHT22;9219;50.396;8.546;2023-11-19T12:03:32;11.90;99.90
18189;DHT22;9219;50.396;8.546;2023-11-19T12:05:59;12.00;99.90
18189;DHT22;9219;50.396;8.546;2023-11-19T12:08:28;12.10;99.90
18189;DHT22;9219;50.396;8.546;2023-11-19T12:10:57;11.90;99.90
18189;DHT22;9219;50.396;8.546;2023-11-19T12:13:47;11.90;99.90
18189;DHT22;9219;50.396;8.546;2023-11-19T12:16:15;11.90;99.90
18189;DHT22;9219;50.396;8.546;2023-11-19T12:18:42;12.00;99.90
18189;DHT22;9219;50.396;8.546;2023-11-19T12:21:10;12.10;99.90
18189;DHT22;9219;50.396;8.546;2023-11-19T12:23:59;11.90;99.90
18189;DHT22;9219;50.396;8.546;2023-11-19T12:26:34;11.90;99.90
18189;DHT22;9219;50.396;8.546;2023-11-19T12:29:02;12.10;99.90
18189;DHT22;9219;50.396;8.546;2023-11-19T12:31:35;12.10;99.90
18189;DHT22;9219;50.396;8.546;2023-11-19T12:34:07;12.10;99.90
18189;DHT22;9219;50.396;8.546;2023-11-19T12:36:39;12.10;99.90
18189;DHT22;9219;50.396;8.546;2023-11-19T12:39:08;12.10;99.90
18189;DHT22;9219;50.396;8.546;2023-11-19T12:44:54;11.90;99.90
18189;DHT22;9219;50.396;8.546;2023-11-19T12:47:22;12.00;99.90
18189;DHT22;9219;50.396;8.546;2023-11-19T12:49:55;12.10;99.90
18189;DHT22;9219;50.396;8.546;2023-11-19T12:52:22;12.10;99.90
18189;DHT22;9219;50.396;8.546;2023-11-19T12:54:50;12.40;99.90
18189;DHT22;9219;50.396;8.546;2023-11-19T12:57:17;12.60;99.90
18189;DHT22;9219;50.396;8.546;2023-11-19T12:59:55;12.70;99.90
18189;DHT22;9219;50.396;8.546;2023-11-19T13:08:46;13.10;99.90
18189;DHT22;9219;50.396;8.546;2023-11-19T13:11:15;12.60;99.90
18189;DHT22;9219;50.396;8.546;2023-11-19T13:13:55;12.60;99.90
18189;DHT22;9219;50.396;8.546;2023-11-19T13:16:23;12.40;99.90
18189;DHT22;9219;50.396;8.546;2023-11-19T13:18:50;12.50;99.90
18189;DHT22;9219;50.396;8.546;2023-11-19T13:21:18;12.90;99.90
18189;DHT22;9219;50.396;8.546;2023-11-19T13:23:46;13.00;99.90
18189;DHT22;9219;50.396;8.546;2023-11-19T13:29:57;13.00;99.90
18189;DHT22;9219;50.396;8.546;2023-11-19T13:32:26;12.60;99.90
18189;DHT22;9219;50.396;8.546;2023-11-19T13:34:53;12.50;99.90
18189;DHT22;9219;50.396;8.546;2023-11-19T13:37:20;12.50;99.90
18189;DHT22;9219;50.396;8.546;2023-11-19T13:39:47;12.60;99.90
18189;DHT22;9219;50.396;8.546;2023-11-19T13:42:15;12.70;99.90
18189;DHT22;9219;50.396;8.546;2023-11-19T13:44:43;12.70;99.90
18189;DHT22;9219;50.396;8.546;2023-11-19T13:47:11;12.90;99.90
18189;DHT22;9219;50.396;8.546;2023-11-19T13:54:44;12.70;99.90
18189;DHT22;9219;50.396;8.546;2023-11-19T13:57:11;12.70;99.90
18189;DHT22;9219;50.396;8.546;2023-11-19T13:59:39;12.80;99.90
18189;DHT22;9219;50.396;8.546;2023-11-19T14:02:07;12.90;99.90
18189;DHT22;9219;50.396;8.546;2023-11-19T14:04:35;12.70;99.90
18189;DHT22;9219;50.396;8.546;2023-11-19T14:07:02;13.10;99.90
18189;DHT22;9219;50.396;8.546;2023-11-19T14:09:29;12.90;99.90
18189;DHT22;9219;50.396;8.546;2023-11-19T14:15:41;13.00;99.90
18189;DHT22;9219;50.396;8.546;2023-11-19T14:18:09;12.90;99.90
18189;DHT22;9219;50.396;8.546;2023-11-19T14:20:37;13.00;99.90
18189;DHT22;9219;50.396;8.546;2023-11-19T14:23:05;13.10;99.90
18189;DHT22;9219;50.396;8.546;2023-11-19T14:25:32;13.30;99.90
18189;DHT22;9219;50.396;8.546;2023-11-19T14:27:59;13.50;99.90
18189;DHT22;9219;50.396;8.546;2023-11-19T14:30:29;13.40;99.90
18189;DHT22;9219;50.396;8.546;2023-11-19T14:35:35;13.30;99.90
18189;DHT22;9219;50.396;8.546;2023-11-19T14:38:03;12.70;99.90
18189;DHT22;9219;50.396;8.546;2023-11-19T14:40:33;12.70;99.90
18189;DHT22;9219;50.396;8.546;2023-11-19T14:43:03;12.50;99.90
18189;DHT22;9219;50.396;8.546;2023-11-19T14:45:30;12.60;99.90
18189;DHT22;9219;50.396;8.546;2023-11-19T14:48:08;12.60;99.90
18189;DHT22;9219;50.396;8.546;2023-11-19T14:50:37;12.50;99.90
18189;DHT22;9219;50.396;8.546;2023-11-19T14:53:04;12.80;99.90
18189;DHT22;9219;50.396;8.546;2023-11-19T15:01:33;12.60;99.90
18189;DHT22;9219;50.396;8.546;2023-11-19T15:04:00;12.40;99.90
18189;DHT22;9219;50.396;8.546;2023-11-19T15:06:31;12.40;99.90
18189;DHT22;9219;50.396;8.546;2023-11-19T15:09:00;12.40;99.90
18189;DHT22;9219;50.396;8.546;2023-11-19T15:11:27;12.40;99.90
18189;DHT22;9219;50.396;8.546;2023-11-19T15:13:54;12.10;99.90
18189;DHT22;9219;50.396;8.546;2023-11-19T15:16:21;12.10;99.90
18189;DHT22;9219;50.396;8.546;2023-11-19T15:23:14;12.30;99.90
18189;DHT22;9219;50.396;8.546;2023-11-19T15:25:42;12.20;99.90
18189;DHT22;9219;50.396;8.546;2023-11-19T15:28:09;12.50;99.90
18189;DHT22;9219;50.396;8.546;2023-11-19T15:30:36;12.00;99.90
18189;DHT22;9219;50.396;8.546;2023-11-19T15:33:03;12.00;99.90
18189;DHT22;9219;50.396;8.546;2023-11-19T15:35:30;12.10;99.90
18189;DHT22;9219;50.396;8.546;2023-11-19T15:38:01;12.00;99.90
18189;DHT22;9219;50.396;8.546;2023-11-19T15:43:08;11.80;99.90
18189;DHT22;9219;50.396;8.546;2023-11-19T15:45:35;12.40;99.90
18189;DHT22;9219;50.396;8.546;2023-11-19T15:48:05;12.00;99.90
18189;DHT22;9219;50.396;8.546;2023-11-19T15:50:32;12.00;99.90
18189;DHT22;9219;50.396;8.546;2023-11-19T15:52:59;11.70;99.90
18189;DHT22;9219;50.396;8.546;2023-11-19T15:55:28;11.90;99.90
18189;DHT22;9219;50.396;8.546;2023-11-19T15:57:54;12.10;99.90
18189;DHT22;9219;50.396;8.546;2023-11-19T16:03:50;12.10;99.90
18189;DHT22;9219;50.396;8.546;2023-11-19T16:06:19;12.40;99.90
18189;DHT22;9219;50.396;8.546;2023-11-19T16:08:46;12.60;99.90
18189;DHT22;9219;50.396;8.546;2023-11-19T16:11:14;12.70;99.90
18189;DHT22;9219;50.396;8.546;2023-11-19T16:13:41;12.60;99.90
18189;DHT22;9219;50.396;8.546;2023-11-19T16:16:09;12.50;99.90
18189;DHT22;9219;50.396;8.546;2023-11-19T16:18:37;12.50;99.90
18189;DHT22;9219;50.396;8.546;2023-11-19T16:23:48;12.30;99.90
18189;DHT22;9219;50.396;8.546;2023-11-19T16:26:16;12.10;99.90
18189;DHT22;9219;50.396;8.546;2023-11-19T16:28:43;12.00;99.90
18189;DHT22;9219;50.396;8.546;2023-11-19T16:31:11;11.90;99.90
18189;DHT22;9219;50.396;8.546;2023-11-19T16:33:38;11.90;99.90
18189;DHT22;9219;50.396;8.546;2023-11-19T16:36:06;12.00;99.90
18189;DHT22;9219;50.396;8.546;2023-11-19T16:38:34;12.20;99.90
18189;DHT22;9219;50.396;8.546;2023-11-19T16:43:44;12.40;99.90
18189;DHT22;9219;50.396;8.546;2023-11-19T16:46:11;12.30;99.90
18189;DHT22;9219;50.396;8.546;2023-11-19T16:48:38;12.10;99.90
18189;DHT22;9219;50.396;8.546;2023-11-19T16:51:09;12.20;99.90
18189;DHT22;9219;50.396;8.546;2023-11-19T16:53:44;12.00;99.90
18189;DHT22;9219;50.396;8.546;2023-11-19T16:56:12;12.40;99.90
18189;DHT22;9219;50.396;8.546;2023-11-19T16:58:39;12.30;99.90
18189;DHT22;9219;50.396;8.546;2023-11-19T17:01:09;11.70;99.90
18189;DHT22;9219;50.396;8.546;2023-11-19T17:08:41;11.90;99.90
18189;DHT22;9219;50.396;8.546;2023-11-19T17:11:08;11.90;99.90
18189;DHT22;9219;50.396;8.546;2023-11-19T17:13:36;11.90;99.90
18189;DHT22;9219;50.396;8.546;2023-11-19T17:16:04;12.10;99.90
18189;DHT22;9219;50.396;8.546;2023-11-19T17:18:34;12.20;99.90
18189;DHT22;9219;50.396;8.546;2023-11-19T17:21:01;12.20;99.90
18189;DHT22;9219;50.396;8.546;2023-11-19T17:23:28;12.00;99.90
18189;DHT22;9219;50.396;8.546;2023-11-19T17:29:40;11.70;99.90
18189;DHT22;9219;50.396;8.546;2023-11-19T17:32:07;11.40;99.90
18189;DHT22;9219;50.396;8.546;2023-11-19T17:34:34;11.50;99.90
18189;DHT22;9219;50.396;8.546;2023-11-19T17:37:01;11.40;99.90
18189;DHT22;9219;50.396;8.546;2023-11-19T17:39:29;11.70;99.90
18189;DHT22;9219;50.396;8.546;2023-11-19T17:41:56;11.70;99.90
18189;DHT22;9219;50.396;8.546;2023-11-19T17:44:23;11.80;99.90
18189;DHT22;9219;50.396;8.546;2023-11-19T17:54:08;11.10;99.90
18189;DHT22;9219;50.396;8.546;2023-11-19T17:56:36;11.00;99.90
18189;DHT22;9219;50.396;8.546;2023-11-19T17:59:04;11.00;99.90
18189;DHT22;9219;50.396;8.546;2023-11-19T18:01:31;10.90;99.90
18189;DHT22;9219;50.396;8.546;2023-11-19T18:03:58;11.00;99.90
18189;DHT22;9219;50.396;8.546;2023-11-19T18:06:26;11.00;99.90
18189;DHT22;9219;50.396;8.546;2023-11-19T18:08:53;11.20;99.90
18189;DHT22;9219;50.396;8.546;2023-11-19T18:14:50;11.40;99.90
18189;DHT22;9219;50.396;8.546;2023-11-19T18:17:20;11.30;99.90
18189;DHT22;9219;50.396;8.546;2023-11-19T18:19:48;11.00;99.90
18189;DHT22;9219;50.396;8.546;2023-11-19T18:22:15;11.30;99.90
18189;DHT22;9219;50.396;8.546;2023-11-19T18:24:42;11.20;99.90
18189;DHT22;9219;50.396;8.546;2023-11-19T18:27:09;11.20;99.90
18189;DHT22;9219;50.396;8.546;2023-11-19T18:29:36;11.20;99.90
18189;DHT22;9219;50.396;8.546;2023-11-19T18:32:06;11.30;99.90
18189;DHT22;9219;50.396;8.546;2023-11-19T18:34:47;11.50;99.90
18189;DHT22;9219;50.396;8.546;2023-11-19T18:37:14;11.30;99.90
18189;DHT22;9219;50.396;8.546;2023-11-19T18:39:41;11.50;99.90
18189;DHT22;9219;50.396;8.546;2023-11-19T18:42:09;11.20;99.90
18189;DHT22;9219;50.396;8.546;2023-11-19T18:44:36;11.40;99.90
18189;DHT22;9219;50.396;8.546;2023-11-19T18:47:04;11.40;99.90
18189;DHT22;9219;50.396;8.546;2023-11-19T18:49:31;11.40;99.90
18189;DHT22;9219;50.396;8.546;2023-11-19T18:52:00;11.60;99.90
18189;DHT22;9219;50.396;8.546;2023-11-19T19:00:00;11.60;99.90
18189;DHT22;9219;50.396;8.546;2023-11-19T19:02:32;11.30;99.90
18189;DHT22;9219;50.396;8.546;2023-11-19T19:04:59;11.50;99.90
18189;DHT22;9219;50.396;8.546;2023-11-19T19:07:27;11.70;99.90
18189;DHT22;9219;50.396;8.546;2023-11-19T19:09:54;11.60;99.90
18189;DHT22;9219;50.396;8.546;2023-11-19T19:12:22;11.60;99.90
18189;DHT22;9219;50.396;8.546;2023-11-19T19:14:50;11.60;99.90
18189;DHT22;9219;50.396;8.546;2023-11-19T19:24:04;11.70;99.90
18189;DHT22;9219;50.396;8.546;2023-11-19T19:26:34;11.40;99.90
18189;DHT22;9219;50.396;8.546;2023-11-19T19:29:04;11.60;99.90
18189;DHT22;9219;50.396;8.546;2023-11-19T19:31:31;11.50;99.90
18189;DHT22;9219;50.396;8.546;2023-11-19T19:33:59;11.30;99.90
18189;DHT22;9219;50.396;8.546;2023-11-19T19:36:27;11.30;99.90
18189;DHT22;9219;50.396;8.546;2023-11-19T19:38:58;11.20;99.90
18189;DHT22;9219;50.396;8.546;2023-11-19T19:46:32;11.00;99.90
18189;DHT22;9219;50.396;8.546;2023-11-19T19:48:59;11.20;99.90
18189;DHT22;9219;50.396;8.546;2023-11-19T19:51:26;11.30;99.90
18189;DHT22;9219;50.396;8.546;2023-11-19T19:53:54;11.40;99.90
18189;DHT22;9219;50.396;8.546;2023-11-19T19:56:22;11.60;99.90